createdAt,value
2022-08-17T00:00:42.878Z,20.80
2022-08-17T00:03:30.571Z,20.80
2022-08-17T00:06:26.112Z,20.80
2022-08-17T00:08:57.797Z,20.80
2022-08-17T00:11:28.865Z,20.80
2022-08-17T00:14:03.666Z,20.80
2022-08-17T00:16:51.025Z,20.80
2022-08-17T00:19:25.558Z,20.70
2022-08-17T00:22:34.671Z,20.70
2022-08-17T00:24:45.600Z,20.60
2022-08-17T00:27:13.465Z,20.50
2022-08-17T00:29:42.315Z,20.40
2022-08-17T00:33:15.013Z,20.40
2022-08-17T00:34:58.373Z,20.40
2022-08-17T00:37:26.351Z,20.40
2022-08-17T00:39:54.441Z,20.40
2022-08-17T00:42:22.367Z,20.40
2022-08-17T00:44:50.235Z,20.40
2022-08-17T00:47:18.104Z,20.40
2022-08-17T00:49:46.144Z,20.50
2022-08-17T00:52:20.551Z,20.50
2022-08-17T00:54:52.378Z,20.50
2022-08-17T00:57:28.481Z,20.50
2022-08-17T01:00:02.922Z,20.50
2022-08-17T01:02:42.464Z,20.40
2022-08-17T01:05:18.636Z,20.30
2022-08-17T01:07:50.056Z,20.30
2022-08-17T01:10:59.223Z,20.20
2022-08-17T01:13:12.416Z,20.20
2022-08-17T01:15:47.681Z,20.20
2022-08-17T01:18:16.709Z,20.20
2022-08-17T01:20:50.736Z,20.30
2022-08-17T01:23:21.406Z,20.30
2022-08-17T01:25:55.181Z,20.30
2022-08-17T01:28:33.656Z,20.30
2022-08-17T01:31:13.337Z,20.40
2022-08-17T01:33:42.026Z,20.40
2022-08-17T01:36:10.606Z,20.40
2022-08-17T01:38:40.401Z,20.50
2022-08-17T01:41:15.570Z,20.40
2022-08-17T01:43:56.951Z,20.30
2022-08-17T01:46:28.847Z,20.30
2022-08-17T01:48:57.958Z,20.30
2022-08-17T01:51:32.812Z,20.30
2022-08-17T01:54:05.459Z,20.30
2022-08-17T01:56:35.623Z,20.30
2022-08-17T01:59:04.233Z,20.30
2022-08-17T02:01:33.799Z,20.30
2022-08-17T02:04:02.992Z,20.30
2022-08-17T02:06:52.721Z,20.30
2022-08-17T02:09:25.218Z,20.30
2022-08-17T02:11:56.309Z,20.20
2022-08-17T02:14:25.880Z,20.20
2022-08-17T02:16:54.356Z,20.10
2022-08-17T02:19:22.757Z,20.10
2022-08-17T02:21:53.016Z,20.10
2022-08-17T02:24:58.798Z,20.10
2022-08-17T02:27:13.796Z,20.10
2022-08-17T02:29:41.607Z,20.00
2022-08-17T02:32:27.980Z,19.90
2022-08-17T02:35:01.602Z,19.90
2022-08-17T02:37:31.956Z,19.80
2022-08-17T02:40:00.008Z,19.90
2022-08-17T02:42:33.985Z,19.80
2022-08-17T02:45:03.997Z,19.80
2022-08-17T02:47:31.945Z,19.80
2022-08-17T02:49:59.778Z,19.90
2022-08-17T02:52:41.926Z,20.00
2022-08-17T02:55:24.341Z,20.00
2022-08-17T02:57:53.475Z,20.00
2022-08-17T03:00:30.116Z,20.00
2022-08-17T03:02:58.052Z,19.90
2022-08-17T03:05:29.112Z,19.90
2022-08-17T03:07:57.150Z,19.90
2022-08-17T03:10:25.685Z,19.80
2022-08-17T03:12:54.248Z,19.80
2022-08-17T03:15:26.060Z,19.70
2022-08-17T03:17:55.274Z,19.70
2022-08-17T03:20:24.856Z,19.60
2022-08-17T03:22:55.583Z,19.50
2022-08-17T03:25:39.983Z,19.50
2022-08-17T03:28:14.584Z,19.50
2022-08-17T03:30:42.680Z,19.50
2022-08-17T03:33:10.931Z,19.40
2022-08-17T03:35:40.469Z,19.40
2022-08-17T03:38:10.919Z,19.40
2022-08-17T03:40:57.059Z,19.40
2022-08-17T03:43:32.048Z,19.50
2022-08-17T03:46:28.216Z,19.50
2022-08-17T03:49:26.726Z,19.40
2022-08-17T03:52:14.864Z,19.40
2022-08-17T03:55:52.463Z,19.40
2022-08-17T03:58:20.336Z,19.50
2022-08-17T04:00:48.993Z,19.70
2022-08-17T04:03:17.912Z,19.80
2022-08-17T04:05:45.696Z,19.90
2022-08-17T04:08:13.835Z,20.00
2022-08-17T04:10:45.005Z,19.90
2022-08-17T04:13:13.924Z,19.80
2022-08-17T04:15:41.905Z,19.80
2022-08-17T04:18:11.056Z,19.70
2022-08-17T04:20:38.981Z,19.70
2022-08-17T04:23:11.627Z,19.60
2022-08-17T04:25:43.267Z,19.60
2022-08-17T04:28:16.146Z,19.60
2022-08-17T04:30:45.735Z,19.60
2022-08-17T04:33:17.242Z,19.70
2022-08-17T04:35:48.246Z,19.70
2022-08-17T04:38:24.668Z,19.60
2022-08-17T04:41:11.435Z,19.50
2022-08-17T04:43:41.414Z,19.50
2022-08-17T04:46:14.593Z,19.40
2022-08-17T04:48:50.079Z,19.50
2022-08-17T04:51:23.008Z,19.60
2022-08-17T04:53:57.686Z,19.60
2022-08-17T04:56:27.189Z,19.70
2022-08-17T04:59:00.272Z,19.90
2022-08-17T05:01:31.779Z,20.10
2022-08-17T05:04:21.389Z,20.30
2022-08-17T05:06:50.874Z,20.30
2022-08-17T05:09:18.837Z,20.20
2022-08-17T05:11:47.162Z,20.20
2022-08-17T05:14:15.413Z,20.20
2022-08-17T05:16:43.291Z,20.10
2022-08-17T05:19:11.248Z,20.10
2022-08-17T05:21:39.147Z,20.20
2022-08-17T05:24:09.683Z,20.30
2022-08-17T05:26:54.829Z,20.40
2022-08-17T05:29:23.137Z,20.70
2022-08-17T05:32:39.284Z,21.00
2022-08-17T05:35:08.523Z,21.00
2022-08-17T05:37:36.413Z,21.10
2022-08-17T05:40:04.853Z,21.00
2022-08-17T05:42:32.737Z,21.20
2022-08-17T05:45:00.606Z,21.70
2022-08-17T05:47:30.421Z,22.20
2022-08-17T05:50:00.969Z,22.30
2022-08-17T05:53:16.012Z,22.50
2022-08-17T05:56:10.871Z,23.00
2022-08-17T05:59:19.902Z,23.00
2022-08-17T06:02:08.882Z,22.70
2022-08-17T06:04:53.126Z,22.30
2022-08-17T06:07:24.203Z,22.40
2022-08-17T06:10:17.144Z,22.90
2022-08-17T06:13:34.520Z,23.10
2022-08-17T06:16:33.393Z,22.90
2022-08-17T06:23:36.145Z,22.40
2022-08-17T06:26:13.908Z,22.10
2022-08-17T06:28:51.937Z,21.90
2022-08-17T06:31:27.520Z,22.50
2022-08-17T06:33:57.924Z,22.90
2022-08-17T06:37:03.777Z,23.20
2022-08-17T06:39:52.075Z,23.20
2022-08-17T06:43:02.137Z,23.30
2022-08-17T06:45:34.666Z,23.00
2022-08-17T06:48:24.898Z,23.30
2022-08-17T06:50:59.950Z,23.40
2022-08-17T06:54:00.834Z,23.30
2022-08-17T06:57:06.259Z,23.80
2022-08-17T06:59:58.640Z,24.10
2022-08-17T07:02:51.265Z,24.30
2022-08-17T07:05:32.811Z,24.40
2022-08-17T07:12:34.240Z,24.60
2022-08-17T07:15:11.828Z,25.40
2022-08-17T07:17:47.170Z,26.00
2022-08-17T07:20:22.765Z,26.20
2022-08-17T07:23:00.600Z,26.40
2022-08-17T07:25:30.726Z,26.90
2022-08-17T07:28:02.486Z,26.40
2022-08-17T07:30:44.585Z,26.60
2022-08-17T07:33:23.776Z,26.90
2022-08-17T07:35:52.212Z,26.90
2022-08-17T07:38:29.281Z,26.60
2022-08-17T07:41:03.421Z,26.60
2022-08-17T07:43:40.013Z,26.60
2022-08-17T07:46:37.072Z,26.20
2022-08-17T07:49:07.644Z,25.90
2022-08-17T07:51:40.907Z,26.30
2022-08-17T07:54:23.629Z,26.50
2022-08-17T07:57:01.849Z,26.60
2022-08-17T07:59:36.128Z,26.70
2022-08-17T08:02:40.318Z,27.10
2022-08-17T08:10:04.434Z,27.50
2022-08-17T08:12:40.287Z,27.70
2022-08-17T08:15:25.640Z,28.10
2022-08-17T08:17:59.376Z,28.40
2022-08-17T08:20:53.890Z,28.20
2022-08-17T08:23:35.688Z,28.70
2022-08-17T08:26:21.428Z,29.20
2022-08-17T08:29:18.283Z,29.50
2022-08-17T08:32:06.366Z,30.00
2022-08-17T08:35:01.716Z,30.40
2022-08-17T08:37:52.682Z,30.60
2022-08-17T08:40:48.148Z,30.40
2022-08-17T08:43:27.638Z,30.50
2022-08-17T08:46:24.493Z,30.10
2022-08-17T08:49:19.803Z,30.00
2022-08-17T08:51:57.639Z,30.40
2022-08-17T08:54:38.983Z,30.90
2022-08-17T08:57:25.691Z,31.10
2022-08-17T09:00:26.536Z,30.80
2022-08-17T09:03:14.668Z,29.60
2022-08-17T09:05:53.577Z,29.30
2022-08-17T09:08:45.593Z,29.50
2022-08-17T09:12:01.411Z,29.80
2022-08-17T09:14:57.827Z,30.30
2022-08-17T09:17:31.842Z,30.90
2022-08-17T09:20:28.788Z,29.90
2022-08-17T09:23:08.049Z,29.50
2022-08-17T09:25:49.897Z,29.20
2022-08-17T09:28:20.901Z,29.80
2022-08-17T09:30:52.446Z,29.70
2022-08-17T09:33:26.247Z,29.90
2022-08-17T09:36:00.119Z,30.60
2022-08-17T09:38:48.362Z,31.00
2022-08-17T09:41:36.457Z,31.40
2022-08-17T09:44:47.146Z,31.00
2022-08-17T09:47:22.712Z,30.90
2022-08-17T09:49:55.257Z,30.00
2022-08-17T09:52:25.273Z,29.60
2022-08-17T09:54:55.904Z,29.70
2022-08-17T09:57:32.148Z,29.70
2022-08-17T10:00:19.030Z,29.70
2022-08-17T10:03:09.625Z,30.30
2022-08-17T10:05:46.682Z,30.30
2022-08-17T10:08:23.569Z,30.20
2022-08-17T10:11:11.641Z,30.40
2022-08-17T10:13:59.764Z,30.50
2022-08-17T10:16:27.591Z,30.50
2022-08-17T10:19:13.854Z,30.50
2022-08-17T10:22:32.519Z,30.70
2022-08-17T10:25:23.627Z,30.60
2022-08-17T10:27:59.869Z,30.70
2022-08-17T10:30:32.654Z,30.70
2022-08-17T10:33:04.987Z,30.60
2022-08-17T10:35:50.989Z,30.60
2022-08-17T10:38:31.135Z,30.50
2022-08-17T10:41:15.303Z,30.70
2022-08-17T10:44:40.272Z,30.50
2022-08-17T10:47:01.462Z,30.70
2022-08-17T10:49:40.730Z,31.20
2022-08-17T10:52:20.706Z,31.60
2022-08-17T10:55:06.388Z,31.30
2022-08-17T10:57:46.725Z,31.20
2022-08-17T11:00:24.270Z,31.20
2022-08-17T11:02:57.567Z,31.40
2022-08-17T11:06:02.303Z,31.30
2022-08-17T11:09:02.553Z,31.40
2022-08-17T11:11:47.651Z,31.00
2022-08-17T11:14:35.781Z,31.30
2022-08-17T11:17:24.558Z,31.90
2022-08-17T11:20:11.621Z,32.40
2022-08-17T11:22:39.678Z,31.80
2022-08-17T11:25:33.668Z,32.10
2022-08-17T11:28:22.292Z,32.50
2022-08-17T11:30:56.440Z,32.90
2022-08-17T11:33:45.338Z,33.20
2022-08-17T11:36:31.684Z,32.50
2022-08-17T11:39:23.434Z,32.50
2022-08-17T11:41:54.626Z,32.60
2022-08-17T11:44:45.941Z,32.90
2022-08-17T11:48:23.798Z,33.10
2022-08-17T11:51:05.450Z,33.40
2022-08-17T11:53:37.193Z,33.30
2022-08-17T11:56:06.684Z,33.50
2022-08-17T11:58:38.639Z,33.50
2022-08-17T12:01:16.144Z,33.30
2022-08-17T12:03:54.251Z,33.20
2022-08-17T12:06:34.419Z,33.10
2022-08-17T12:09:18.930Z,33.00
2022-08-17T12:12:12.158Z,33.20
2022-08-17T12:15:09.558Z,33.10
2022-08-17T12:17:40.814Z,33.40
2022-08-17T12:20:29.966Z,33.40
2022-08-17T12:23:18.489Z,33.60
2022-08-17T12:25:58.112Z,33.60
2022-08-17T12:28:30.393Z,33.70
2022-08-17T12:31:08.142Z,33.80
2022-08-17T12:33:42.751Z,33.40
2022-08-17T12:36:15.226Z,33.20
2022-08-17T12:38:57.326Z,33.10
2022-08-17T12:41:36.884Z,33.00
2022-08-17T12:44:13.955Z,33.00
2022-08-17T12:46:49.438Z,32.60
2022-08-17T12:49:36.505Z,32.80
2022-08-17T12:52:15.729Z,33.10
2022-08-17T12:54:50.807Z,33.30
2022-08-17T12:57:23.070Z,33.40
2022-08-17T13:00:00.948Z,33.50
2022-08-17T13:02:43.601Z,33.70
2022-08-17T13:05:27.744Z,33.60
2022-08-17T13:07:58.879Z,33.60
2022-08-17T13:10:33.490Z,33.50
2022-08-17T13:13:17.712Z,33.30
2022-08-17T13:16:00.974Z,33.30
2022-08-17T13:18:40.885Z,33.40
2022-08-17T13:21:30.688Z,33.50
2022-08-17T13:24:13.818Z,33.30
2022-08-17T13:26:51.581Z,33.30
2022-08-17T13:29:35.130Z,33.00
2022-08-17T13:32:13.013Z,33.20
2022-08-17T13:35:11.912Z,33.30
2022-08-17T13:37:37.380Z,33.60
2022-08-17T13:40:11.169Z,33.00
2022-08-17T13:42:55.979Z,33.20
2022-08-17T13:45:39.504Z,33.20
2022-08-17T13:48:07.673Z,32.90
2022-08-17T13:50:55.552Z,32.80
2022-08-17T13:53:25.981Z,32.90
2022-08-17T13:56:33.333Z,32.80
2022-08-17T13:59:00.569Z,33.10
2022-08-17T14:01:53.780Z,33.00
2022-08-17T14:04:25.833Z,32.80
2022-08-17T14:07:11.757Z,32.80
2022-08-17T14:09:53.316Z,32.80
2022-08-17T14:12:27.373Z,32.80
2022-08-17T14:14:56.383Z,33.00
2022-08-17T14:17:25.545Z,33.00
2022-08-17T14:19:53.400Z,33.10
2022-08-17T14:22:30.672Z,33.00
2022-08-17T14:25:03.349Z,33.00
2022-08-17T14:27:34.107Z,32.80
2022-08-17T14:30:22.735Z,32.80
2022-08-17T14:32:52.174Z,32.80
2022-08-17T14:35:22.661Z,32.80
2022-08-17T14:37:52.568Z,33.00
2022-08-17T14:40:22.681Z,33.00
2022-08-17T14:42:51.531Z,33.00
2022-08-17T14:45:31.621Z,33.00
2022-08-17T14:48:04.294Z,32.80
2022-08-17T14:50:35.275Z,33.00
2022-08-17T14:53:06.520Z,33.40
2022-08-17T14:55:36.830Z,33.60
2022-08-17T14:58:04.665Z,33.70
2022-08-17T15:00:33.201Z,33.90
2022-08-17T15:03:03.180Z,34.00
2022-08-17T15:05:34.106Z,34.00
2022-08-17T15:08:03.068Z,33.90
2022-08-17T15:10:31.533Z,33.90
2022-08-17T15:13:00.242Z,33.90
2022-08-17T15:15:28.754Z,33.80
2022-08-17T15:18:00.012Z,33.70
2022-08-17T15:20:29.967Z,33.70
2022-08-17T15:22:59.421Z,33.50
2022-08-17T15:25:30.633Z,33.50
2022-08-17T15:27:59.797Z,33.50
2022-08-17T15:30:28.409Z,33.40
2022-08-17T15:32:57.737Z,33.40
2022-08-17T15:35:29.216Z,33.50
2022-08-17T15:38:11.789Z,33.60
2022-08-17T15:40:44.944Z,33.60
2022-08-17T15:43:23.304Z,33.70
2022-08-17T15:46:04.539Z,33.60
2022-08-17T15:48:43.749Z,33.30
2022-08-17T15:51:11.830Z,33.20
2022-08-17T15:53:40.483Z,33.10
2022-08-17T15:56:08.444Z,33.10
2022-08-17T15:58:38.044Z,33.00
2022-08-17T16:01:14.996Z,33.20
2022-08-17T16:04:04.803Z,33.20
2022-08-17T16:06:38.731Z,33.20
2022-08-17T16:09:06.563Z,32.90
2022-08-17T16:11:34.457Z,33.00
2022-08-17T16:14:02.352Z,32.90
2022-08-17T16:16:31.350Z,33.00
2022-08-17T16:18:59.444Z,33.00
2022-08-17T16:21:27.593Z,32.70
2022-08-17T16:24:02.782Z,32.60
2022-08-17T16:26:32.945Z,32.50
2022-08-17T16:29:03.780Z,32.40
2022-08-17T16:31:32.483Z,32.30
2022-08-17T16:34:16.986Z,32.30
2022-08-17T16:36:55.044Z,32.30
2022-08-17T16:39:26.659Z,32.20
2022-08-17T16:41:56.105Z,32.10
2022-08-17T16:44:25.761Z,31.90
2022-08-17T16:46:53.600Z,31.80
2022-08-17T16:49:36.260Z,31.70
2022-08-17T16:52:10.122Z,31.60
2022-08-17T16:54:44.120Z,31.60
2022-08-17T16:57:14.110Z,31.60
2022-08-17T16:59:47.457Z,31.50
2022-08-17T17:02:26.165Z,31.40
2022-08-17T17:05:22.695Z,31.50
2022-08-17T17:08:14.148Z,31.60
2022-08-17T17:10:55.776Z,31.50
2022-08-17T17:13:30.819Z,31.50
2022-08-17T17:16:23.705Z,31.50
2022-08-17T17:19:27.683Z,31.20
2022-08-17T17:22:16.682Z,30.90
2022-08-17T17:25:01.748Z,30.80
2022-08-17T17:27:50.172Z,30.80
2022-08-17T17:30:42.735Z,30.80
2022-08-17T17:33:24.793Z,30.80
2022-08-17T17:36:01.888Z,30.70
2022-08-17T17:38:40.524Z,30.40
2022-08-17T17:41:25.350Z,29.80
2022-08-17T17:44:12.966Z,29.50
2022-08-17T17:47:06.028Z,29.30
2022-08-17T17:49:39.851Z,29.30
2022-08-17T17:52:31.711Z,29.30
2022-08-17T17:55:23.784Z,29.10
2022-08-17T17:58:14.794Z,29.00
2022-08-17T18:01:14.933Z,28.90
2022-08-17T18:04:01.557Z,28.80
2022-08-17T18:07:05.053Z,28.70
2022-08-17T18:10:01.510Z,28.60
2022-08-17T18:13:05.457Z,28.60
2022-08-17T18:15:41.192Z,28.50
2022-08-17T18:18:31.158Z,28.40
2022-08-17T18:21:06.055Z,28.40
2022-08-17T18:23:34.471Z,28.30
2022-08-17T18:26:02.730Z,28.10
2022-08-17T18:28:32.801Z,28.00
2022-08-17T18:31:17.608Z,27.90
2022-08-17T18:33:51.587Z,27.90
2022-08-17T18:36:31.346Z,27.80
2022-08-17T18:39:27.696Z,27.50
2022-08-17T18:41:58.585Z,27.30
2022-08-17T18:44:34.242Z,27.20
2022-08-17T18:47:22.157Z,27.20
2022-08-17T18:49:58.830Z,27.20
2022-08-17T18:52:31.078Z,27.20
2022-08-17T18:55:10.421Z,27.00
2022-08-17T18:57:43.031Z,26.90
2022-08-17T19:00:31.634Z,26.90
2022-08-17T19:03:16.024Z,26.80
2022-08-17T19:05:51.918Z,26.70
2022-08-17T19:08:28.785Z,26.60
2022-08-17T19:11:09.722Z,26.40
2022-08-17T19:13:47.596Z,26.30
2022-08-17T19:16:34.033Z,26.20
2022-08-17T19:19:25.016Z,26.10
2022-08-17T19:22:00.595Z,26.00
2022-08-17T19:24:32.729Z,26.00
2022-08-17T19:27:13.534Z,25.90
2022-08-17T19:30:08.393Z,25.70
2022-08-17T19:32:36.635Z,25.60
2022-08-17T19:35:07.312Z,25.60
2022-08-17T19:38:00.794Z,25.70
2022-08-17T19:40:51.799Z,25.70
2022-08-17T19:43:48.056Z,25.60
2022-08-17T19:46:59.585Z,25.40
2022-08-17T19:49:33.161Z,25.30
2022-08-17T19:52:30.117Z,25.30
2022-08-17T19:55:32.072Z,25.30
2022-08-17T19:58:06.911Z,25.20
2022-08-17T20:00:51.320Z,25.10
2022-08-17T20:03:32.005Z,25.10
2022-08-17T20:06:12.952Z,25.00
2022-08-17T20:08:56.910Z,25.00
2022-08-17T20:11:32.999Z,25.00
2022-08-17T20:14:21.264Z,25.10
2022-08-17T20:16:49.315Z,25.10
2022-08-17T20:19:40.032Z,25.00
2022-08-17T20:22:17.634Z,24.90
2022-08-17T20:24:51.338Z,25.00
2022-08-17T20:27:31.637Z,25.10
2022-08-17T20:30:29.973Z,25.10
2022-08-17T20:32:59.439Z,25.00
2022-08-17T20:35:33.434Z,25.00
2022-08-17T20:38:05.449Z,24.90
2022-08-17T20:41:01.162Z,24.80
2022-08-17T20:43:37.335Z,24.80
2022-08-17T20:46:10.782Z,24.70
2022-08-17T20:48:44.392Z,24.60
2022-08-17T20:51:54.555Z,24.60
2022-08-17T20:54:52.873Z,24.60
2022-08-17T20:57:33.144Z,24.70
2022-08-17T21:00:16.441Z,24.70
2022-08-17T21:03:12.122Z,24.80
2022-08-17T21:06:00.779Z,24.90
2022-08-17T21:08:46.300Z,24.70
2022-08-17T21:12:03.033Z,24.50
2022-08-17T21:14:32.078Z,24.40
2022-08-17T21:17:22.309Z,24.30
2022-08-17T21:20:17.116Z,24.20
2022-08-17T21:23:03.102Z,24.10
2022-08-17T21:26:08.488Z,23.90
2022-08-17T21:29:00.742Z,23.80
2022-08-17T21:31:34.773Z,23.70
2022-08-17T21:34:26.580Z,23.60
2022-08-17T21:36:56.652Z,23.50
2022-08-17T21:39:39.301Z,23.60
2022-08-17T21:42:08.761Z,23.70
2022-08-17T21:44:49.348Z,23.70
2022-08-17T21:47:24.774Z,23.70
2022-08-17T21:49:54.018Z,23.60
2022-08-17T21:52:26.897Z,23.50
2022-08-17T21:55:02.421Z,23.50
2022-08-17T21:57:35.009Z,23.50
2022-08-17T22:00:15.825Z,23.60
2022-08-17T22:02:52.903Z,23.80
2022-08-17T22:05:31.568Z,23.70
2022-08-17T22:08:08.846Z,23.70
2022-08-17T22:10:49.097Z,23.70
2022-08-17T22:13:24.175Z,23.70
2022-08-17T22:16:28.440Z,23.60
2022-08-17T22:18:59.221Z,23.70
2022-08-17T22:21:27.492Z,23.70
2022-08-17T22:24:06.311Z,23.80
2022-08-17T22:27:13.835Z,23.70
2022-08-17T22:29:57.371Z,23.50
2022-08-17T22:32:39.475Z,23.40
2022-08-17T22:35:26.270Z,23.30
2022-08-17T22:37:54.337Z,23.20
2022-08-17T22:40:30.445Z,23.20
2022-08-17T22:43:00.596Z,23.20
2022-08-17T22:45:33.571Z,23.10
2022-08-17T22:48:02.162Z,23.10
2022-08-17T22:50:31.611Z,23.10
2022-08-17T22:53:20.940Z,23.00
2022-08-17T22:56:13.113Z,23.00
2022-08-17T22:59:18.360Z,22.90
2022-08-17T23:02:14.162Z,22.70
2022-08-17T23:04:49.669Z,22.60
2022-08-17T23:07:18.772Z,22.60
2022-08-17T23:09:46.684Z,22.60
2022-08-17T23:12:21.696Z,22.70
2022-08-17T23:14:51.504Z,22.70
2022-08-17T23:17:19.449Z,22.70
2022-08-17T23:19:47.291Z,22.70
2022-08-17T23:22:15.140Z,22.60
2022-08-17T23:24:46.408Z,22.70
2022-08-17T23:27:14.502Z,22.70
2022-08-17T23:29:42.828Z,22.50
2022-08-17T23:32:14.806Z,22.50
2022-08-17T23:34:44.200Z,22.50
2022-08-17T23:37:13.659Z,22.50
2022-08-17T23:39:44.672Z,22.40
2022-08-17T23:42:21.682Z,22.40
2022-08-17T23:44:50.007Z,22.40
2022-08-17T23:47:17.973Z,22.40
2022-08-17T23:49:45.774Z,22.30
2022-08-17T23:52:16.451Z,22.30
2022-08-17T23:54:47.175Z,22.20
2022-08-17T23:57:20.410Z,22.20
